Latest Weather Observations for Mangalore

IDV60801

Issued at 10:02 am EST Monday 31 August 2015 (issued every 30 minutes, with the page automatically refreshed every 10 minutes)

About weather observations | Map of weather stations | Latest weather observations for VIC | Other Formats
Station Details ID: 088109 Name: MANGALORE AIRPORT Lat: -36.89 Lon: 145.19 Height: 140.8 m
Data from the previous 72 hours. | See also: Recent months at Mangalore
Date/Time
EST
Temp
°C
App
Temp
°C
Dew
Point
Rel
Hum
%
Delta-T
°C
Wind Press
QNH
hPa
Press
MSL
hPa
Rain
since 9 am
mm
Dir
 
Spd
km/h
Gust
km/h
Spd
kts
Gust
kts
31/10:00am 8.7 4.2 2.3 64 2.7 SSW 15 20 8 11 1020.4 1020.6 0.0
31/09:30am 8.4 4.0 2.6 67 2.4 SSW 15 24 8 13 1020.5 1020.7 0.0
31/09:00am 8.2 4.3 3.3 71 2.1 S 13 19 7 10 1020.5 1020.7 0.0
31/08:30am 7.0 3.4 3.1 76 1.7 S 11 13 6 7 1020.6 1020.8 0.0
31/08:00am 6.2 3.0 3.0 80 1.3 SSW 9 13 5 7 1020.5 1020.7 0.0
31/07:30am 3.8 0.8 2.2 89 0.6 SSW 7 9 4 5 1020.3 1020.5 0.0
31/07:00am 3.1 -0.3 1.6 90 0.6 SSW 9 13 5 7 1020.1 1020.3 0.0
31/06:30am 2.2 -1.4 0.6 89 0.6 SSW 9 11 5 6 1020.0 1020.2 0.0
31/06:00am 2.4 -0.8 0.8 89 0.6 SSW 7 9 4 5 1020.2 1020.4 0.0
31/05:30am 3.9 0.3 0.9 81 1.2 S 9 11 5 6 1020.1 1020.3 0.0
31/05:00am 3.7 0.2 1.3 84 0.9 S 9 11 5 6 1020.0 1020.2 0.0
31/04:30am 4.4 0.9 1.4 81 1.2 S 9 11 5 6 1020.0 1020.2 0.0
31/04:00am 4.2 0.3 1.4 82 1.1 S 11 13 6 7 1019.9 1020.1 0.0
31/03:30am 4.4 0.6 1.6 82 1.1 S 11 13 6 7 1020.0 1020.2 0.0
31/03:00am 5.1 0.9 1.8 79 1.3 S 13 15 7 8 1020.1 1020.3 0.0
31/02:30am 5.6 1.1 2.3 79 1.4 S 15 19 8 10 1020.4 1020.6 0.0
31/02:00am 5.7 1.6 2.5 80 1.3 S 13 17 7 9 1020.7 1020.9 0.0
31/01:30am 5.5 0.6 2.3 80 1.3 S 17 19 9 10 1021.1 1021.3 0.0
31/01:00am 5.8 1.7 2.3 78 1.4 S 13 19 7 10 1021.2 1021.4 0.0
31/12:30am 6.3 1.5 2.6 77 1.5 S 17 22 9 12 1021.3 1021.5 0.0
31/12:00am 6.4 1.2 2.3 75 1.7 S 19 24 10 13 1021.3 1021.5 0.0
 
Date/Time
EST
Temp
°C
App
Temp
°C
Dew
Point
Rel
Hum
%
Delta-T
°C
Wind Press
QNH
hPa
Press
MSL
hPa
Rain
since 9 am
mm
Dir
 
Spd
km/h
Gust
km/h
Spd
kts
Gust
kts
30/11:30pm 6.7 1.9 2.6 75 1.7 SSW 17 22 9 12 1021.6 1021.8 0.0
30/11:00pm 6.7 3.0 2.6 75 1.7 SSW 11 15 6 8 1022.0 1022.3 0.0
30/10:30pm 7.0 3.0 2.7 74 1.8 S 13 17 7 9 1022.2 1022.5 0.0
30/10:00pm 7.3 3.3 2.8 73 1.9 S 13 19 7 10 1022.5 1022.8 0.0
30/09:30pm 7.4 3.0 2.7 72 2.0 SSW 15 24 8 13 1022.5 1022.8 0.0
30/09:00pm 7.4 3.4 2.9 73 1.9 SSW 13 17 7 9 1022.5 1022.8 0.0
30/08:30pm 7.7 3.0 3.2 73 1.9 SSW 17 22 9 12 1022.3 1022.6 0.0
30/08:00pm 7.9 2.9 3.6 74 1.8 SSW 19 28 10 15 1022.2 1022.5 0.0
30/07:30pm 8.1 3.0 3.9 75 1.8 SSW 20 30 11 16 1022.1 1022.4 0.0
30/07:00pm 8.6 3.5 4.0 73 2.0 SSW 20 30 11 16 1021.9 1022.1 0.0
30/06:30pm 9.1 3.6 3.9 70 2.3 SSW 22 32 12 17 1021.7 1021.9 0.0
30/06:00pm 9.7 4.5 3.4 65 2.7 SSW 20 26 11 14 1021.5 1021.7 0.0
30/05:30pm 10.5 5.5 3.5 62 3.1 SW 19 28 10 15 1021.5 1021.7 0.0
30/05:00pm 11.4 6.2 3.4 58 3.5 SSW 20 32 11 17 1021.4 1021.6 0.0
30/04:30pm 12.1 7.2 3.9 57 3.7 SSW 19 28 10 15 1021.4 1021.6 0.0
30/04:00pm 12.2 7.0 3.7 56 3.8 SSW 20 30 11 16 1021.5 1021.7 0.0
30/03:30pm 12.4 7.5 4.1 57 3.8 SSW 19 28 10 15 1021.6 1021.8 0.0
30/03:00pm 12.7 7.9 4.9 59 3.6 SSW 19 28 10 15 1021.7 1021.9 0.0
30/02:30pm 12.8 8.2 5.5 61 3.4 SSW 19 28 10 15 1021.9 1022.1 0.0
30/02:00pm 12.1 7.7 4.6 60 3.4 SSW 17 24 9 13 1022.2 1022.5 0.0
30/01:30pm 12.4 8.2 5.8 64 3.1 SSW 17 28 9 15 1022.5 1022.8 0.0
30/01:00pm 11.5 6.7 4.5 62 3.2 SSW 19 30 10 16 1022.8 1023.1 0.0
30/12:30pm 10.9 6.1 4.6 65 2.9 SSW 19 24 10 13 1023.4 1023.7 0.0
30/12:00pm 11.2 6.1 4.2 62 3.1 SSW 20 26 11 14 1023.6 1023.9 0.0
30/11:30am 10.9 6.4 4.4 64 2.9 SSW 17 24 9 13 1024.0 1024.3 0.0
30/11:00am 10.5 6.5 5.1 69 2.5 SW 15 20 8 11 1024.2 1024.5 0.0
30/10:30am 10.4 6.0 4.5 67 2.7 SSW 17 22 9 12 1024.3 1024.6 0.0
30/10:00am 10.0 6.7 6.3 78 1.7 SSW 13 20 7 11 1024.4 1024.7 0.0
30/09:30am 9.1 5.8 6.5 84 1.2 SW 13 17 7 9 1024.6 1024.9 0.0
30/09:00am 8.7 5.5 6.7 87 0.9 SW 13 15 7 8 1024.7 1025.0 0.0
30/08:30am 8.4 5.5 6.4 87 0.9 SW 11 15 6 8 1024.6 1024.9 0.0
30/08:00am 8.1 5.6 6.4 89 0.8 SW 9 13 5 7 1024.4 1024.7 0.0
30/07:30am 7.9 5.3 6.2 89 0.8 WSW 9 13 5 7 1024.2 1024.5 0.0
30/07:00am 7.8 4.8 6.1 89 0.8 SW 11 13 6 7 1023.8 1024.1 0.0
30/06:30am 7.8 4.8 5.9 88 0.9 SW 11 13 6 7 1023.6 1023.9 0.0
30/06:00am 7.8 4.8 5.8 87 0.9 SW 11 19 6 10 1023.3 1023.6 0.0
30/05:30am 7.9 5.3 5.9 87 0.9 SSW 9 15 5 8 1023.3 1023.6 0.0
30/05:00am 7.8 5.2 6.1 89 0.8 SSW 9 17 5 9 1023.4 1023.7 0.0
30/04:30am 7.8 4.5 6.3 90 0.7 SW 13 17 7 9 1023.3 1023.6 0.0
30/04:00am 7.8 4.5 6.6 92 0.6 SW 13 17 7 9 1023.3 1023.6 0.0
30/03:30am 7.8 4.9 6.6 92 0.6 SSW 11 13 6 7 1023.4 1023.7 0.0
30/03:00am 7.8 4.9 6.4 91 0.6 SW 11 17 6 9 1023.6 1023.9 0.0
30/02:30am 7.9 4.6 6.2 89 0.8 SSW 13 17 7 9 1023.6 1023.9 0.0
30/02:00am 8.0 5.0 6.1 88 0.9 SSW 11 17 6 9 1023.8 1024.1 0.0
30/01:30am 8.0 4.3 6.3 89 0.8 SSW 15 19 8 10 1024.1 1024.4 0.0
30/01:00am 8.1 4.9 6.7 91 0.6 SW 13 17 7 9 1024.2 1024.5 0.0
30/12:30am 8.1 5.6 6.4 89 0.8 SSW 9 13 5 7 1024.6 1024.9 0.0
30/12:00am 8.2 5.7 6.5 89 0.8 SSW 9 13 5 7 1024.6 1024.9 0.0
 
Date/Time
EST
Temp
°C
App
Temp
°C
Dew
Point
Rel
Hum
%
Delta-T
°C
Wind Press
QNH
hPa
Press
MSL
hPa
Rain
since 9 am
mm
Dir
 
Spd
km/h
Gust
km/h
Spd
kts
Gust
kts
29/11:30pm 8.1 5.8 7.5 96 0.3 SW 9 11 5 6 1024.5 1024.8 0.0
29/11:00pm 8.0 5.0 7.6 97 0.2 SW 13 17 7 9 1024.7 1025.0 0.0
29/10:30pm 8.1 4.7 7.5 96 0.3 SW 15 19 8 10 1024.7 1025.0 0.0
29/10:00pm 8.2 4.7 7.3 94 0.4 SSW 15 20 8 11 1024.9 1025.2 0.0
29/09:30pm 8.3 5.1 6.8 90 0.7 SW 13 19 7 10 1024.9 1025.2 0.0
29/09:00pm 8.8 4.7 6.1 83 1.2 SW 17 22 9 12 1024.9 1025.2 0.0
29/08:30pm 9.0 4.8 5.9 81 1.4 SSW 17 24 9 13 1025.0 1025.3 0.0
29/08:00pm 8.7 5.8 6.7 87 0.9 SW 11 17 6 9 1024.9 1025.2 0.0
29/07:30pm 8.6 5.1 7.1 90 0.7 SW 15 20 8 11 1025.0 1025.3 0.0
29/07:00pm 8.6 5.4 6.7 88 0.9 SSW 13 20 7 11 1025.0 1025.3 0.0
29/06:30pm 9.0 5.3 6.1 82 1.3 SSW 15 20 8 11 1024.8 1025.1 0.0
29/06:00pm 8.9 5.1 5.8 81 1.4 SSW 15 22 8 12 1024.6 1024.9 0.0
29/05:30pm 8.6 4.7 5.5 81 1.4 SW 15 22 8 12 1024.4 1024.7 0.0
29/05:00pm 9.8 5.0 5.4 74 2.0 SSW 20 32 11 17 1024.3 1024.6 0.0
29/04:30pm 10.0 5.1 5.2 72 2.2 SSW 20 32 11 17 1024.1 1024.4 0.0
29/04:00pm 10.1 5.2 5.3 72 2.2 SSW 20 30 11 16 1024.3 1024.6 0.0
29/03:30pm 9.5 3.8 4.9 73 2.1 SSW 24 35 13 19 1024.5 1024.8 0.0
29/03:00pm 10.2 5.1 4.1 66 2.7 SSW 20 32 11 17 1024.5 1024.8 0.0
29/02:30pm 9.8 4.8 4.6 70 2.3 SW 20 30 11 16 1024.5 1024.8 0.0
29/02:00pm 10.9 5.9 4.6 65 2.8 SSW 20 32 11 17 1024.6 1024.9 0.0
29/01:30pm 9.7 5.2 4.1 68 2.5 SSW 17 26 9 14 1024.8 1025.1 0.0
29/01:00pm 9.7 4.7 3.7 66 2.6 SSW 19 28 10 15 1025.3 1025.6 0.0
29/12:30pm 10.4 4.7 3.0 60 3.2 SSW 22 30 12 16 1025.7 1026.0 0.0
29/12:00pm 9.1 3.9 3.3 67 2.5 SSW 20 28 11 15 1026.2 1026.4 0.0
29/11:30am 9.2 4.5 3.4 67 2.5 SSW 17 26 9 14 1026.3 1026.5 0.0
29/11:00am 8.8 3.4 2.2 63 2.8 SSW 20 30 11 16 1026.4 1026.6 0.0
29/10:30am 8.9 3.5 2.3 63 2.8 SSW 20 32 11 17 1026.5 1026.7 0.0
29/10:00am 9.1 2.7 0.8 56 3.4 SSW 24 37 13 20 1026.5 1026.7 0.0
29/09:30am 8.3 2.0 1.7 63 2.7 S 24 39 13 21 1026.7 1026.9 0.0
29/09:00am 6.8 2.7 2.5 74 1.8 SSW 13 20 7 11 1026.4 1026.6 0.0
29/08:30am 5.6 1.0 3.6 87 0.8 SW 17 22 9 12 1026.4 1026.6 0.0
29/08:00am 3.2 -0.1 2.5 95 0.3 SSW 9 13 5 7 1026.0 1026.3 0.0
29/07:30am 1.8 -1.3 1.1 95 0.3 SSW 7 9 4 5 1026.2 1026.4 0.0
29/07:00am 1.6 -1.6 0.7 94 0.3 SSW 7 9 4 5 1025.9 1026.2 0.0
29/06:30am 1.7 -1.9 0.5 92 0.4 SSW 9 9 5 5 1025.6 1025.9 0.0
29/06:00am 1.3 -2.4 -0.3 89 0.6 SSW 9 11 5 6 1025.3 1025.6 0.0
29/05:30am 2.7 -0.6 0.4 85 0.9 SSW 7 7 4 4 1025.1 1025.4 0.0
29/05:00am 3.1 -0.5 0.5 83 1.0 SSW 9 11 5 6 1025.1 1025.4 0.0
29/04:30am 2.8 -1.2 0.2 83 1.0 SW 11 13 6 7 1025.1 1025.4 0.0
29/04:00am 2.6 -1.5 -0.3 81 1.1 SW 11 13 6 7 1024.9 1025.2 0.0
29/03:30am 1.8 -2.0 -0.8 83 0.9 SW 9 13 5 7 1024.9 1025.2 0.0
29/03:00am 3.1 -0.7 -0.4 78 1.3 SW 9 13 5 7 1025.1 1025.4 0.0
29/02:30am 3.1 -0.9 0.2 81 1.1 SW 11 15 6 8 1025.3 1025.6 0.0
29/02:00am 2.7 -1.3 0.3 84 0.9 SW 11 13 6 7 1025.5 1025.8 0.0
29/01:30am 3.3 0.0 0.2 80 1.2 SW 7 9 4 5 1025.7 1026.0 0.0
29/01:00am 4.1 0.5 0.4 77 1.4 SW 9 13 5 7 1025.7 1026.0 0.0
29/12:30am 5.3 1.0 1.1 74 1.7 SSW 13 19 7 10 1025.6 1025.9 0.0
29/12:00am 5.9 0.9 1.4 73 1.8 SW 17 22 9 12 1025.8 1026.1 0.0
 
Date/Time
EST
Temp
°C
App
Temp
°C
Dew
Point
Rel
Hum
%
Delta-T
°C
Wind Press
QNH
hPa
Press
MSL
hPa
Rain
since 9 am
mm
Dir
 
Spd
km/h
Gust
km/h
Spd
kts
Gust
kts
28/11:30pm 6.3 1.4 1.8 73 1.8 SSW 17 26 9 14 1025.8 1026.1 0.0
28/11:00pm 6.4 1.2 2.3 75 1.7 SSW 19 26 10 14 1025.7 1026.0 0.0
28/10:30pm 6.4 1.9 1.9 73 1.8 SSW 15 20 8 11 1025.9 1026.2 0.0
28/10:00pm 6.7 1.8 2.0 72 1.9 SSW 17 22 9 12 1025.8 1026.1 0.0
28/09:30pm 7.1 2.8 3.0 75 1.7 SSW 15 20 8 11 1025.8 1026.1 0.0
28/09:00pm 7.8 2.5 3.1 72 2.0 SSW 20 24 11 13 1025.7 1026.0 0.0
28/08:30pm 8.3 2.7 3.6 72 2.0 SSW 22 30 12 16 1025.3 1025.6 0.0
28/08:00pm 8.5 4.0 4.3 75 1.8 SSW 17 24 9 13 1025.2 1025.5 0.0
28/07:30pm 8.4 3.6 4.4 76 1.8 SW 19 26 10 14 1025.0 1025.3 0.0
28/07:00pm 8.9 3.9 4.5 74 1.9 SSW 20 30 11 16 1024.7 1025.0 0.0
28/06:30pm 9.6 4.9 5.0 73 2.1 SSW 19 28 10 15 1024.5 1024.8 0.0
28/06:00pm 9.9 5.7 5.5 74 2.0 SSW 17 22 9 12 1024.2 1024.5 0.0
28/05:30pm 10.8 5.6 5.3 69 2.5 SW 22 32 12 17 1023.8 1024.1 0.0
28/05:00pm 11.6 7.4 5.7 67 2.7 SSW 17 22 9 12 1023.5 1023.8 0.0
28/04:30pm 12.9 7.5 4.6 57 3.8 SSW 22 32 12 17 1023.3 1023.6 0.0
28/04:00pm 13.2 8.2 4.6 56 4.0 SSW 20 28 11 15 1023.2 1023.5 0.0
28/03:30pm 13.4 8.7 5.1 57 3.9 SSW 19 28 10 15 1023.3 1023.6 0.0
28/03:00pm 13.7 8.5 5.3 57 3.9 SSW 22 30 12 16 1023.4 1023.7 0.0
28/02:30pm 12.7 7.9 4.4 57 3.8 SSW 19 28 10 15 1023.5 1023.8 0.0
28/02:00pm 12.2 6.5 4.9 61 3.4 SSW 24 33 13 18 1023.6 1023.9 0.0
28/01:30pm 11.9 7.4 6.0 67 2.8 SSW 19 30 10 16 1023.9 1024.2 0.0
28/01:00pm 12.0 7.2 5.4 64 3.1 SW 20 30 11 16 1024.1 1024.4 0.0
28/12:30pm 12.2 7.4 5.8 65 3.0 SSW 20 28 11 15 1024.5 1024.8 0.0
28/12:00pm 12.3 8.3 6.8 69 2.6 SSW 17 24 9 13 1024.9 1025.2 0.0
28/11:30am 11.4 7.4 6.5 72 2.3 SW 17 24 9 13 1025.3 1025.6 0.0
28/11:00am 10.6 6.0 5.6 71 2.3 SSW 19 28 10 15 1025.3 1025.6 0.0
28/10:30am 10.9 6.5 5.0 67 2.7 S 17 24 9 13 1025.1 1025.4 0.0

Other Formats:

Comma delimited format used in spreadsheet applications
http://www.bom.gov.au/fwo/IDV60801/IDV60801.94874.axf

JavaScript Object Notation format (JSON) in row-major order
http://www.bom.gov.au/fwo/IDV60801/IDV60801.94874.json